<?xml version="1.0" encoding="UTF-8" standalone="no" ?>
<gpx xmlns="http://www.topografix.com/GPX/1/1" xmlns:xsi="http://www.w3.org/2001/XMLSchema-instance" xsi:schemaLocation="http://www.topografix.com/GPX/1/1 http://www.topografix.com/GPX/1/1/gpx.xsd" version="1.1" creator="VisuGPX - https://www.visugpx.com">
  <metadata>
    <name>Bouc-Bel-Air - Allée Allée des Peintres - Bois de Jussieu</name>
    <desc><![CDATA[Quelques petites pentes.]]></desc>
  </metadata>
  <trk>
    <name><![CDATA[Bouc allée peintres]]></name>
    <trkseg>
      <trkpt lat="43.45903" lon="5.39919">
        <ele>179</ele>
        <time>2020-02-11T13:01:39Z</time>
      </trkpt>
      <trkpt lat="43.45912" lon="5.39921">
        <ele>179</ele>
        <time>2020-02-11T13:01:54Z</time>
      </trkpt>
      <trkpt lat="43.4592" lon="5.39915">
        <ele>178</ele>
        <time>2020-02-11T13:02:04Z</time>
      </trkpt>
      <trkpt lat="43.45929" lon="5.39911">
        <ele>179</ele>
        <time>2020-02-11T13:02:14Z</time>
      </trkpt>
      <trkpt lat="43.45937" lon="5.39905">
        <ele>179</ele>
        <time>2020-02-11T13:02:25Z</time>
      </trkpt>
      <trkpt lat="43.45946" lon="5.39898">
        <ele>179</ele>
        <time>2020-02-11T13:02:35Z</time>
      </trkpt>
      <trkpt lat="43.45954" lon="5.39891">
        <ele>180</ele>
        <time>2020-02-11T13:02:44Z</time>
      </trkpt>
      <trkpt lat="43.45962" lon="5.39884">
        <ele>181</ele>
        <time>2020-02-11T13:02:54Z</time>
      </trkpt>
      <trkpt lat="43.4597" lon="5.39878">
        <ele>182</ele>
        <time>2020-02-11T13:03:03Z</time>
      </trkpt>
      <trkpt lat="43.45978" lon="5.3987">
        <ele>182</ele>
        <time>2020-02-11T13:03:12Z</time>
      </trkpt>
      <trkpt lat="43.45986" lon="5.39862">
        <ele>182</ele>
        <time>2020-02-11T13:03:22Z</time>
      </trkpt>
      <trkpt lat="43.45993" lon="5.39855">
        <ele>182</ele>
        <time>2020-02-11T13:03:32Z</time>
      </trkpt>
      <trkpt lat="43.46" lon="5.39846">
        <ele>183</ele>
        <time>2020-02-11T13:03:41Z</time>
      </trkpt>
      <trkpt lat="43.46008" lon="5.39838">
        <ele>183</ele>
        <time>2020-02-11T13:03:51Z</time>
      </trkpt>
      <trkpt lat="43.46015" lon="5.39828">
        <ele>184</ele>
        <time>2020-02-11T13:04:02Z</time>
      </trkpt>
      <trkpt lat="43.46022" lon="5.3982">
        <ele>184</ele>
        <time>2020-02-11T13:04:11Z</time>
      </trkpt>
      <trkpt lat="43.46029" lon="5.39811">
        <ele>185</ele>
        <time>2020-02-11T13:04:22Z</time>
      </trkpt>
      <trkpt lat="43.46035" lon="5.398">
        <ele>187</ele>
        <time>2020-02-11T13:04:32Z</time>
      </trkpt>
      <trkpt lat="43.46042" lon="5.39791">
        <ele>186</ele>
        <time>2020-02-11T13:04:42Z</time>
      </trkpt>
      <trkpt lat="43.46048" lon="5.39781">
        <ele>186</ele>
        <time>2020-02-11T13:04:52Z</time>
      </trkpt>
      <trkpt lat="43.46054" lon="5.39771">
        <ele>186</ele>
        <time>2020-02-11T13:05:03Z</time>
      </trkpt>
      <trkpt lat="43.4606" lon="5.39762">
        <ele>189</ele>
        <time>2020-02-11T13:05:15Z</time>
      </trkpt>
      <trkpt lat="43.46067" lon="5.39753">
        <ele>190</ele>
        <time>2020-02-11T13:05:26Z</time>
      </trkpt>
      <trkpt lat="43.46074" lon="5.39744">
        <ele>190</ele>
        <time>2020-02-11T13:05:36Z</time>
      </trkpt>
      <trkpt lat="43.46081" lon="5.39734">
        <ele>193</ele>
        <time>2020-02-11T13:05:49Z</time>
      </trkpt>
      <trkpt lat="43.46087" lon="5.39724">
        <ele>195</ele>
        <time>2020-02-11T13:06:01Z</time>
      </trkpt>
      <trkpt lat="43.46095" lon="5.39717">
        <ele>196</ele>
        <time>2020-02-11T13:06:10Z</time>
      </trkpt>
      <trkpt lat="43.46101" lon="5.39708">
        <ele>197</ele>
        <time>2020-02-11T13:06:21Z</time>
      </trkpt>
      <trkpt lat="43.46109" lon="5.397">
        <ele>197</ele>
        <time>2020-02-11T13:06:31Z</time>
      </trkpt>
      <trkpt lat="43.46114" lon="5.3969">
        <ele>200</ele>
        <time>2020-02-11T13:06:43Z</time>
      </trkpt>
      <trkpt lat="43.46121" lon="5.39681">
        <ele>199</ele>
        <time>2020-02-11T13:06:53Z</time>
      </trkpt>
      <trkpt lat="43.46128" lon="5.39672">
        <ele>199</ele>
        <time>2020-02-11T13:07:03Z</time>
      </trkpt>
      <trkpt lat="43.46134" lon="5.39663">
        <ele>199</ele>
        <time>2020-02-11T13:07:14Z</time>
      </trkpt>
      <trkpt lat="43.46141" lon="5.39655">
        <ele>202</ele>
        <time>2020-02-11T13:07:26Z</time>
      </trkpt>
      <trkpt lat="43.46148" lon="5.39645">
        <ele>201</ele>
        <time>2020-02-11T13:08:56Z</time>
      </trkpt>
      <trkpt lat="43.46156" lon="5.39637">
        <ele>203</ele>
        <time>2020-02-11T13:09:07Z</time>
      </trkpt>
      <trkpt lat="43.46162" lon="5.39628">
        <ele>203</ele>
        <time>2020-02-11T13:09:18Z</time>
      </trkpt>
      <trkpt lat="43.46168" lon="5.39619">
        <ele>203</ele>
        <time>2020-02-11T13:09:28Z</time>
      </trkpt>
      <trkpt lat="43.46175" lon="5.3961">
        <ele>206</ele>
        <time>2020-02-11T13:09:39Z</time>
      </trkpt>
      <trkpt lat="43.46179" lon="5.39598">
        <ele>209</ele>
        <time>2020-02-11T13:09:53Z</time>
      </trkpt>
      <trkpt lat="43.46183" lon="5.39586">
        <ele>210</ele>
        <time>2020-02-11T13:10:58Z</time>
      </trkpt>
      <trkpt lat="43.46189" lon="5.39576">
        <ele>212</ele>
        <time>2020-02-11T13:11:11Z</time>
      </trkpt>
      <trkpt lat="43.46196" lon="5.39569">
        <ele>212</ele>
        <time>2020-02-11T13:11:23Z</time>
      </trkpt>
      <trkpt lat="43.46203" lon="5.3956">
        <ele>214</ele>
        <time>2020-02-11T13:11:33Z</time>
      </trkpt>
      <trkpt lat="43.46209" lon="5.39549">
        <ele>216</ele>
        <time>2020-02-11T13:11:48Z</time>
      </trkpt>
      <trkpt lat="43.46213" lon="5.39538">
        <ele>220</ele>
        <time>2020-02-11T13:12:23Z</time>
      </trkpt>
      <trkpt lat="43.46213" lon="5.39524">
        <ele>221</ele>
        <time>2020-02-11T13:12:37Z</time>
      </trkpt>
      <trkpt lat="43.46217" lon="5.39513">
        <ele>224</ele>
        <time>2020-02-11T13:12:49Z</time>
      </trkpt>
      <trkpt lat="43.46222" lon="5.39501">
        <ele>223</ele>
        <time>2020-02-11T13:13:00Z</time>
      </trkpt>
      <trkpt lat="43.46229" lon="5.39491">
        <ele>223</ele>
        <time>2020-02-11T13:13:13Z</time>
      </trkpt>
      <trkpt lat="43.46235" lon="5.39482">
        <ele>231</ele>
        <time>2020-02-11T13:13:35Z</time>
      </trkpt>
      <trkpt lat="43.46239" lon="5.39471">
        <ele>230</ele>
        <time>2020-02-11T13:14:47Z</time>
      </trkpt>
      <trkpt lat="43.4624" lon="5.39458">
        <ele>228</ele>
        <time>2020-02-11T13:15:33Z</time>
      </trkpt>
      <trkpt lat="43.46246" lon="5.39447">
        <ele>229</ele>
        <time>2020-02-11T13:15:48Z</time>
      </trkpt>
      <trkpt lat="43.46251" lon="5.39435">
        <ele>227</ele>
        <time>2020-02-11T13:16:00Z</time>
      </trkpt>
      <trkpt lat="43.46256" lon="5.39424">
        <ele>227</ele>
        <time>2020-02-11T13:16:10Z</time>
      </trkpt>
      <trkpt lat="43.4626" lon="5.39412">
        <ele>226</ele>
        <time>2020-02-11T13:16:22Z</time>
      </trkpt>
      <trkpt lat="43.46267" lon="5.39402">
        <ele>227</ele>
        <time>2020-02-11T13:16:35Z</time>
      </trkpt>
      <trkpt lat="43.46273" lon="5.39393">
        <ele>228</ele>
        <time>2020-02-11T13:16:43Z</time>
      </trkpt>
      <trkpt lat="43.46279" lon="5.39383">
        <ele>226</ele>
        <time>2020-02-11T13:16:53Z</time>
      </trkpt>
      <trkpt lat="43.46287" lon="5.39377">
        <ele>224</ele>
        <time>2020-02-11T13:17:03Z</time>
      </trkpt>
      <trkpt lat="43.46293" lon="5.39365">
        <ele>226</ele>
        <time>2020-02-11T13:17:14Z</time>
      </trkpt>
      <trkpt lat="43.46301" lon="5.39354">
        <ele>228</ele>
        <time>2020-02-11T13:17:30Z</time>
      </trkpt>
      <trkpt lat="43.46307" lon="5.39345">
        <ele>227</ele>
        <time>2020-02-11T13:17:42Z</time>
      </trkpt>
      <trkpt lat="43.46311" lon="5.39333">
        <ele>224</ele>
        <time>2020-02-11T13:17:54Z</time>
      </trkpt>
      <trkpt lat="43.46314" lon="5.39322">
        <ele>225</ele>
        <time>2020-02-11T13:18:05Z</time>
      </trkpt>
      <trkpt lat="43.46317" lon="5.39309">
        <ele>225</ele>
        <time>2020-02-11T13:18:15Z</time>
      </trkpt>
      <trkpt lat="43.46319" lon="5.39296">
        <ele>226</ele>
        <time>2020-02-11T13:18:26Z</time>
      </trkpt>
      <trkpt lat="43.46322" lon="5.39283">
        <ele>225</ele>
        <time>2020-02-11T13:18:38Z</time>
      </trkpt>
      <trkpt lat="43.46324" lon="5.39268">
        <ele>222</ele>
        <time>2020-02-11T13:18:50Z</time>
      </trkpt>
      <trkpt lat="43.46325" lon="5.39256">
        <ele>222</ele>
        <time>2020-02-11T13:19:02Z</time>
      </trkpt>
      <trkpt lat="43.46326" lon="5.39243">
        <ele>222</ele>
        <time>2020-02-11T13:19:11Z</time>
      </trkpt>
      <trkpt lat="43.46328" lon="5.39227">
        <ele>222</ele>
        <time>2020-02-11T13:19:25Z</time>
      </trkpt>
      <trkpt lat="43.46328" lon="5.39214">
        <ele>222</ele>
        <time>2020-02-11T13:19:34Z</time>
      </trkpt>
      <trkpt lat="43.46326" lon="5.39201">
        <ele>222</ele>
        <time>2020-02-11T13:19:44Z</time>
      </trkpt>
      <trkpt lat="43.46326" lon="5.39188">
        <ele>222</ele>
        <time>2020-02-11T13:19:53Z</time>
      </trkpt>
      <trkpt lat="43.46326" lon="5.39175">
        <ele>224</ele>
        <time>2020-02-11T13:20:04Z</time>
      </trkpt>
      <trkpt lat="43.46322" lon="5.39162">
        <ele>224</ele>
        <time>2020-02-11T13:20:14Z</time>
      </trkpt>
      <trkpt lat="43.46319" lon="5.3915">
        <ele>224</ele>
        <time>2020-02-11T13:20:26Z</time>
      </trkpt>
      <trkpt lat="43.46317" lon="5.39137">
        <ele>222</ele>
        <time>2020-02-11T13:20:35Z</time>
      </trkpt>
      <trkpt lat="43.46322" lon="5.39126">
        <ele>219</ele>
        <time>2020-02-11T13:20:44Z</time>
      </trkpt>
      <trkpt lat="43.46331" lon="5.3912">
        <ele>219</ele>
        <time>2020-02-11T13:20:57Z</time>
      </trkpt>
      <trkpt lat="43.46335" lon="5.39109">
        <ele>216</ele>
        <time>2020-02-11T13:21:14Z</time>
      </trkpt>
      <trkpt lat="43.46341" lon="5.39098">
        <ele>215</ele>
        <time>2020-02-11T13:21:28Z</time>
      </trkpt>
      <trkpt lat="43.46344" lon="5.39085">
        <ele>215</ele>
        <time>2020-02-11T13:21:43Z</time>
      </trkpt>
      <trkpt lat="43.46347" lon="5.39073">
        <ele>214</ele>
        <time>2020-02-11T13:21:55Z</time>
      </trkpt>
      <trkpt lat="43.4635" lon="5.3906">
        <ele>211</ele>
        <time>2020-02-11T13:22:08Z</time>
      </trkpt>
      <trkpt lat="43.46356" lon="5.3905">
        <ele>211</ele>
        <time>2020-02-11T13:22:18Z</time>
      </trkpt>
      <trkpt lat="43.46363" lon="5.39041">
        <ele>209</ele>
        <time>2020-02-11T13:22:28Z</time>
      </trkpt>
      <trkpt lat="43.4637" lon="5.39033">
        <ele>210</ele>
        <time>2020-02-11T13:22:39Z</time>
      </trkpt>
      <trkpt lat="43.46379" lon="5.39027">
        <ele>208</ele>
        <time>2020-02-11T13:22:51Z</time>
      </trkpt>
      <trkpt lat="43.46385" lon="5.39017">
        <ele>208</ele>
        <time>2020-02-11T13:23:01Z</time>
      </trkpt>
      <trkpt lat="43.46391" lon="5.39007">
        <ele>208</ele>
        <time>2020-02-11T13:23:11Z</time>
      </trkpt>
      <trkpt lat="43.46399" lon="5.38999">
        <ele>207</ele>
        <time>2020-02-11T13:23:22Z</time>
      </trkpt>
      <trkpt lat="43.46405" lon="5.38989">
        <ele>205</ele>
        <time>2020-02-11T13:23:38Z</time>
      </trkpt>
      <trkpt lat="43.4641" lon="5.38977">
        <ele>204</ele>
        <time>2020-02-11T13:23:54Z</time>
      </trkpt>
      <trkpt lat="43.46415" lon="5.38966">
        <ele>203</ele>
        <time>2020-02-11T13:24:04Z</time>
      </trkpt>
      <trkpt lat="43.46423" lon="5.38955">
        <ele>202</ele>
        <time>2020-02-11T13:24:20Z</time>
      </trkpt>
      <trkpt lat="43.46426" lon="5.38943">
        <ele>201</ele>
        <time>2020-02-11T13:24:35Z</time>
      </trkpt>
      <trkpt lat="43.46428" lon="5.3893">
        <ele>200</ele>
        <time>2020-02-11T13:24:46Z</time>
      </trkpt>
      <trkpt lat="43.4643" lon="5.38918">
        <ele>198</ele>
        <time>2020-02-11T13:24:57Z</time>
      </trkpt>
      <trkpt lat="43.46433" lon="5.38906">
        <ele>199</ele>
        <time>2020-02-11T13:25:10Z</time>
      </trkpt>
      <trkpt lat="43.46435" lon="5.38893">
        <ele>196</ele>
        <time>2020-02-11T13:25:26Z</time>
      </trkpt>
      <trkpt lat="43.46434" lon="5.3888">
        <ele>197</ele>
        <time>2020-02-11T13:25:39Z</time>
      </trkpt>
      <trkpt lat="43.46433" lon="5.38868">
        <ele>196</ele>
        <time>2020-02-11T13:25:54Z</time>
      </trkpt>
      <trkpt lat="43.46435" lon="5.38855">
        <ele>195</ele>
        <time>2020-02-11T13:26:10Z</time>
      </trkpt>
      <trkpt lat="43.46436" lon="5.38842">
        <ele>192</ele>
        <time>2020-02-11T13:26:33Z</time>
      </trkpt>
      <trkpt lat="43.46439" lon="5.38829">
        <ele>189</ele>
        <time>2020-02-11T13:26:48Z</time>
      </trkpt>
      <trkpt lat="43.46446" lon="5.38819">
        <ele>189</ele>
        <time>2020-02-11T13:27:08Z</time>
      </trkpt>
      <trkpt lat="43.46455" lon="5.38814">
        <ele>186</ele>
        <time>2020-02-11T13:27:22Z</time>
      </trkpt>
      <trkpt lat="43.46464" lon="5.38812">
        <ele>186</ele>
        <time>2020-02-11T13:27:34Z</time>
      </trkpt>
      <trkpt lat="43.46473" lon="5.38807">
        <ele>186</ele>
        <time>2020-02-11T13:27:45Z</time>
      </trkpt>
      <trkpt lat="43.46481" lon="5.38801">
        <ele>185</ele>
        <time>2020-02-11T13:28:00Z</time>
      </trkpt>
      <trkpt lat="43.4649" lon="5.38792">
        <ele>183</ele>
        <time>2020-02-11T13:28:17Z</time>
      </trkpt>
      <trkpt lat="43.465" lon="5.38781">
        <ele>181</ele>
        <time>2020-02-11T13:28:32Z</time>
      </trkpt>
      <trkpt lat="43.46506" lon="5.38772">
        <ele>179</ele>
        <time>2020-02-11T13:28:43Z</time>
      </trkpt>
      <trkpt lat="43.46513" lon="5.38763">
        <ele>180</ele>
        <time>2020-02-11T13:28:53Z</time>
      </trkpt>
      <trkpt lat="43.4652" lon="5.38753">
        <ele>178</ele>
        <time>2020-02-11T13:29:06Z</time>
      </trkpt>
      <trkpt lat="43.46528" lon="5.38743">
        <ele>178</ele>
        <time>2020-02-11T13:29:21Z</time>
      </trkpt>
      <trkpt lat="43.46534" lon="5.38733">
        <ele>177</ele>
        <time>2020-02-11T13:29:31Z</time>
      </trkpt>
      <trkpt lat="43.46544" lon="5.38729">
        <ele>175</ele>
        <time>2020-02-11T13:29:41Z</time>
      </trkpt>
      <trkpt lat="43.46548" lon="5.38717">
        <ele>176</ele>
        <time>2020-02-11T13:29:51Z</time>
      </trkpt>
      <trkpt lat="43.46553" lon="5.38707">
        <ele>176</ele>
        <time>2020-02-11T13:30:03Z</time>
      </trkpt>
      <trkpt lat="43.46561" lon="5.387">
        <ele>174</ele>
        <time>2020-02-11T13:30:12Z</time>
      </trkpt>
      <trkpt lat="43.46569" lon="5.38692">
        <ele>174</ele>
        <time>2020-02-11T13:30:23Z</time>
      </trkpt>
      <trkpt lat="43.46576" lon="5.38684">
        <ele>175</ele>
        <time>2020-02-11T13:30:32Z</time>
      </trkpt>
      <trkpt lat="43.46579" lon="5.38672">
        <ele>174</ele>
        <time>2020-02-11T13:30:42Z</time>
      </trkpt>
      <trkpt lat="43.46585" lon="5.38663">
        <ele>172</ele>
        <time>2020-02-11T13:30:52Z</time>
      </trkpt>
      <trkpt lat="43.46591" lon="5.38654">
        <ele>171</ele>
        <time>2020-02-11T13:31:03Z</time>
      </trkpt>
      <trkpt lat="43.46597" lon="5.38644">
        <ele>170</ele>
        <time>2020-02-11T13:31:15Z</time>
      </trkpt>
      <trkpt lat="43.46601" lon="5.38632">
        <ele>169</ele>
        <time>2020-02-11T13:31:30Z</time>
      </trkpt>
      <trkpt lat="43.46603" lon="5.38619">
        <ele>170</ele>
        <time>2020-02-11T13:31:40Z</time>
      </trkpt>
      <trkpt lat="43.46603" lon="5.38607">
        <ele>168</ele>
        <time>2020-02-11T13:31:51Z</time>
      </trkpt>
      <trkpt lat="43.46602" lon="5.38593">
        <ele>169</ele>
        <time>2020-02-11T13:32:03Z</time>
      </trkpt>
      <trkpt lat="43.46605" lon="5.38581">
        <ele>168</ele>
        <time>2020-02-11T13:32:14Z</time>
      </trkpt>
      <trkpt lat="43.4661" lon="5.38568">
        <ele>167</ele>
        <time>2020-02-11T13:32:25Z</time>
      </trkpt>
      <trkpt lat="43.46617" lon="5.38561">
        <ele>166</ele>
        <time>2020-02-11T13:32:34Z</time>
      </trkpt>
      <trkpt lat="43.46621" lon="5.3855">
        <ele>163</ele>
        <time>2020-02-11T13:32:45Z</time>
      </trkpt>
      <trkpt lat="43.46613" lon="5.38543">
        <ele>162</ele>
        <time>2020-02-11T13:33:07Z</time>
      </trkpt>
      <trkpt lat="43.46603" lon="5.38542">
        <ele>162</ele>
        <time>2020-02-11T13:33:18Z</time>
      </trkpt>
      <trkpt lat="43.46594" lon="5.3854">
        <ele>163</ele>
        <time>2020-02-11T13:33:31Z</time>
      </trkpt>
      <trkpt lat="43.46587" lon="5.38533">
        <ele>164</ele>
        <time>2020-02-11T13:33:43Z</time>
      </trkpt>
      <trkpt lat="43.46579" lon="5.38525">
        <ele>164</ele>
        <time>2020-02-11T13:33:55Z</time>
      </trkpt>
      <trkpt lat="43.46573" lon="5.38515">
        <ele>163</ele>
        <time>2020-02-11T13:34:09Z</time>
      </trkpt>
      <trkpt lat="43.46573" lon="5.38501">
        <ele>163</ele>
        <time>2020-02-11T13:34:34Z</time>
      </trkpt>
      <trkpt lat="43.46575" lon="5.38488">
        <ele>163</ele>
        <time>2020-02-11T13:34:44Z</time>
      </trkpt>
      <trkpt lat="43.46582" lon="5.38474">
        <ele>163</ele>
        <time>2020-02-11T13:35:00Z</time>
      </trkpt>
      <trkpt lat="43.46588" lon="5.38465">
        <ele>165</ele>
        <time>2020-02-11T13:35:17Z</time>
      </trkpt>
      <trkpt lat="43.46595" lon="5.38455">
        <ele>166</ele>
        <time>2020-02-11T13:35:29Z</time>
      </trkpt>
      <trkpt lat="43.46598" lon="5.38443">
        <ele>165</ele>
        <time>2020-02-11T13:35:38Z</time>
      </trkpt>
      <trkpt lat="43.46599" lon="5.3843">
        <ele>165</ele>
        <time>2020-02-11T13:35:48Z</time>
      </trkpt>
      <trkpt lat="43.46598" lon="5.38417">
        <ele>165</ele>
        <time>2020-02-11T13:35:59Z</time>
      </trkpt>
      <trkpt lat="43.46597" lon="5.38405">
        <ele>165</ele>
        <time>2020-02-11T13:36:09Z</time>
      </trkpt>
      <trkpt lat="43.46595" lon="5.38393">
        <ele>164</ele>
        <time>2020-02-11T13:36:18Z</time>
      </trkpt>
      <trkpt lat="43.46594" lon="5.38381">
        <ele>164</ele>
        <time>2020-02-11T13:36:28Z</time>
      </trkpt>
      <trkpt lat="43.46593" lon="5.38368">
        <ele>164</ele>
        <time>2020-02-11T13:37:06Z</time>
      </trkpt>
      <trkpt lat="43.46594" lon="5.38355">
        <ele>164</ele>
        <time>2020-02-11T13:37:16Z</time>
      </trkpt>
      <trkpt lat="43.46594" lon="5.38342">
        <ele>166</ele>
        <time>2020-02-11T13:37:26Z</time>
      </trkpt>
      <trkpt lat="43.46595" lon="5.3833">
        <ele>165</ele>
        <time>2020-02-11T13:37:36Z</time>
      </trkpt>
      <trkpt lat="43.46594" lon="5.38316">
        <ele>166</ele>
        <time>2020-02-11T13:37:46Z</time>
      </trkpt>
      <trkpt lat="43.46592" lon="5.38304">
        <ele>165</ele>
        <time>2020-02-11T13:37:55Z</time>
      </trkpt>
      <trkpt lat="43.46587" lon="5.38294">
        <ele>164</ele>
        <time>2020-02-11T13:38:04Z</time>
      </trkpt>
      <trkpt lat="43.46578" lon="5.38287">
        <ele>163</ele>
        <time>2020-02-11T13:38:12Z</time>
      </trkpt>
      <trkpt lat="43.46571" lon="5.38279">
        <ele>161</ele>
        <time>2020-02-11T13:38:21Z</time>
      </trkpt>
      <trkpt lat="43.46562" lon="5.38272">
        <ele>160</ele>
        <time>2020-02-11T13:38:31Z</time>
      </trkpt>
      <trkpt lat="43.46554" lon="5.38266">
        <ele>161</ele>
        <time>2020-02-11T13:38:41Z</time>
      </trkpt>
      <trkpt lat="43.46546" lon="5.3826">
        <ele>162</ele>
        <time>2020-02-11T13:38:51Z</time>
      </trkpt>
      <trkpt lat="43.46539" lon="5.38252">
        <ele>161</ele>
        <time>2020-02-11T13:39:00Z</time>
      </trkpt>
      <trkpt lat="43.46529" lon="5.38248">
        <ele>164</ele>
        <time>2020-02-11T13:39:10Z</time>
      </trkpt>
      <trkpt lat="43.46521" lon="5.3824">
        <ele>165</ele>
        <time>2020-02-11T13:39:19Z</time>
      </trkpt>
      <trkpt lat="43.46512" lon="5.38232">
        <ele>165</ele>
        <time>2020-02-11T13:39:31Z</time>
      </trkpt>
      <trkpt lat="43.46505" lon="5.38225">
        <ele>165</ele>
        <time>2020-02-11T13:39:40Z</time>
      </trkpt>
      <trkpt lat="43.46497" lon="5.38219">
        <ele>166</ele>
        <time>2020-02-11T13:39:49Z</time>
      </trkpt>
      <trkpt lat="43.46489" lon="5.38211">
        <ele>165</ele>
        <time>2020-02-11T13:39:59Z</time>
      </trkpt>
      <trkpt lat="43.46481" lon="5.38204">
        <ele>166</ele>
        <time>2020-02-11T13:40:08Z</time>
      </trkpt>
      <trkpt lat="43.46473" lon="5.38197">
        <ele>168</ele>
        <time>2020-02-11T13:40:50Z</time>
      </trkpt>
      <trkpt lat="43.46464" lon="5.38194">
        <ele>168</ele>
        <time>2020-02-11T13:41:03Z</time>
      </trkpt>
      <trkpt lat="43.46454" lon="5.38191">
        <ele>172</ele>
        <time>2020-02-11T13:41:24Z</time>
      </trkpt>
      <trkpt lat="43.46445" lon="5.38189">
        <ele>171</ele>
        <time>2020-02-11T13:41:33Z</time>
      </trkpt>
      <trkpt lat="43.46435" lon="5.38189">
        <ele>171</ele>
        <time>2020-02-11T13:41:42Z</time>
      </trkpt>
      <trkpt lat="43.46425" lon="5.38188">
        <ele>172</ele>
        <time>2020-02-11T13:41:56Z</time>
      </trkpt>
      <trkpt lat="43.46417" lon="5.38182">
        <ele>172</ele>
        <time>2020-02-11T13:42:05Z</time>
      </trkpt>
      <trkpt lat="43.4641" lon="5.38173">
        <ele>172</ele>
        <time>2020-02-11T13:42:14Z</time>
      </trkpt>
      <trkpt lat="43.46407" lon="5.38159">
        <ele>177</ele>
        <time>2020-02-11T13:42:27Z</time>
      </trkpt>
      <trkpt lat="43.46405" lon="5.38147">
        <ele>176</ele>
        <time>2020-02-11T13:42:37Z</time>
      </trkpt>
      <trkpt lat="43.46403" lon="5.38134">
        <ele>177</ele>
        <time>2020-02-11T13:42:47Z</time>
      </trkpt>
      <trkpt lat="43.46405" lon="5.38121">
        <ele>179</ele>
        <time>2020-02-11T13:42:58Z</time>
      </trkpt>
      <trkpt lat="43.46404" lon="5.38109">
        <ele>181</ele>
        <time>2020-02-11T13:43:09Z</time>
      </trkpt>
      <trkpt lat="43.46407" lon="5.38095">
        <ele>182</ele>
        <time>2020-02-11T13:43:18Z</time>
      </trkpt>
      <trkpt lat="43.46406" lon="5.38083">
        <ele>180</ele>
        <time>2020-02-11T13:43:27Z</time>
      </trkpt>
      <trkpt lat="43.46406" lon="5.3807">
        <ele>181</ele>
        <time>2020-02-11T13:43:40Z</time>
      </trkpt>
      <trkpt lat="43.46398" lon="5.38064">
        <ele>180</ele>
        <time>2020-02-11T13:43:52Z</time>
      </trkpt>
      <trkpt lat="43.4639" lon="5.38055">
        <ele>180</ele>
        <time>2020-02-11T13:44:33Z</time>
      </trkpt>
      <trkpt lat="43.46383" lon="5.38048">
        <ele>181</ele>
        <time>2020-02-11T13:44:46Z</time>
      </trkpt>
      <trkpt lat="43.46374" lon="5.38043">
        <ele>183</ele>
        <time>2020-02-11T13:44:59Z</time>
      </trkpt>
      <trkpt lat="43.46363" lon="5.38042">
        <ele>183</ele>
        <time>2020-02-11T13:45:19Z</time>
      </trkpt>
      <trkpt lat="43.46354" lon="5.38043">
        <ele>185</ele>
        <time>2020-02-11T13:45:30Z</time>
      </trkpt>
      <trkpt lat="43.46345" lon="5.38044">
        <ele>184</ele>
        <time>2020-02-11T13:45:42Z</time>
      </trkpt>
      <trkpt lat="43.46336" lon="5.38048">
        <ele>184</ele>
        <time>2020-02-11T13:45:53Z</time>
      </trkpt>
      <trkpt lat="43.46327" lon="5.38054">
        <ele>184</ele>
        <time>2020-02-11T13:49:46Z</time>
      </trkpt>
      <trkpt lat="43.4632" lon="5.3806">
        <ele>184</ele>
        <time>2020-02-11T13:49:57Z</time>
      </trkpt>
      <trkpt lat="43.46312" lon="5.38068">
        <ele>186</ele>
        <time>2020-02-11T13:50:07Z</time>
      </trkpt>
      <trkpt lat="43.46305" lon="5.38076">
        <ele>188</ele>
        <time>2020-02-11T13:50:18Z</time>
      </trkpt>
      <trkpt lat="43.46296" lon="5.38084">
        <ele>189</ele>
        <time>2020-02-11T13:50:30Z</time>
      </trkpt>
      <trkpt lat="43.4629" lon="5.38094">
        <ele>189</ele>
        <time>2020-02-11T13:50:42Z</time>
      </trkpt>
      <trkpt lat="43.46282" lon="5.38099">
        <ele>189</ele>
        <time>2020-02-11T13:50:54Z</time>
      </trkpt>
      <trkpt lat="43.46273" lon="5.38106">
        <ele>188</ele>
        <time>2020-02-11T13:51:03Z</time>
      </trkpt>
      <trkpt lat="43.46264" lon="5.38111">
        <ele>189</ele>
        <time>2020-02-11T13:51:13Z</time>
      </trkpt>
      <trkpt lat="43.46255" lon="5.38111">
        <ele>190</ele>
        <time>2020-02-11T13:51:22Z</time>
      </trkpt>
      <trkpt lat="43.46246" lon="5.38107">
        <ele>191</ele>
        <time>2020-02-11T13:51:31Z</time>
      </trkpt>
      <trkpt lat="43.46237" lon="5.38104">
        <ele>191</ele>
        <time>2020-02-11T13:51:41Z</time>
      </trkpt>
      <trkpt lat="43.46228" lon="5.38101">
        <ele>193</ele>
        <time>2020-02-11T13:51:50Z</time>
      </trkpt>
      <trkpt lat="43.46219" lon="5.38098">
        <ele>192</ele>
        <time>2020-02-11T13:52:02Z</time>
      </trkpt>
      <trkpt lat="43.46209" lon="5.38098">
        <ele>192</ele>
        <time>2020-02-11T13:52:13Z</time>
      </trkpt>
      <trkpt lat="43.462" lon="5.38099">
        <ele>193</ele>
        <time>2020-02-11T13:52:23Z</time>
      </trkpt>
      <trkpt lat="43.46191" lon="5.38098">
        <ele>193</ele>
        <time>2020-02-11T13:52:33Z</time>
      </trkpt>
      <trkpt lat="43.46182" lon="5.381">
        <ele>193</ele>
        <time>2020-02-11T13:52:43Z</time>
      </trkpt>
      <trkpt lat="43.46173" lon="5.38102">
        <ele>195</ele>
        <time>2020-02-11T13:52:53Z</time>
      </trkpt>
      <trkpt lat="43.46163" lon="5.38103">
        <ele>195</ele>
        <time>2020-02-11T13:53:05Z</time>
      </trkpt>
      <trkpt lat="43.46154" lon="5.38104">
        <ele>195</ele>
        <time>2020-02-11T13:53:14Z</time>
      </trkpt>
      <trkpt lat="43.46144" lon="5.38104">
        <ele>194</ele>
        <time>2020-02-11T13:53:24Z</time>
      </trkpt>
      <trkpt lat="43.46135" lon="5.38102">
        <ele>195</ele>
        <time>2020-02-11T13:53:33Z</time>
      </trkpt>
      <trkpt lat="43.46126" lon="5.38098">
        <ele>194</ele>
        <time>2020-02-11T13:53:44Z</time>
      </trkpt>
      <trkpt lat="43.46119" lon="5.3809">
        <ele>192</ele>
        <time>2020-02-11T13:53:56Z</time>
      </trkpt>
      <trkpt lat="43.4611" lon="5.38084">
        <ele>195</ele>
        <time>2020-02-11T13:54:07Z</time>
      </trkpt>
      <trkpt lat="43.46103" lon="5.38077">
        <ele>195</ele>
        <time>2020-02-11T13:54:17Z</time>
      </trkpt>
      <trkpt lat="43.46093" lon="5.38076">
        <ele>195</ele>
        <time>2020-02-11T13:54:28Z</time>
      </trkpt>
      <trkpt lat="43.46084" lon="5.38075">
        <ele>196</ele>
        <time>2020-02-11T13:54:36Z</time>
      </trkpt>
      <trkpt lat="43.46075" lon="5.38072">
        <ele>196</ele>
        <time>2020-02-11T13:54:44Z</time>
      </trkpt>
      <trkpt lat="43.46066" lon="5.38074">
        <ele>195</ele>
        <time>2020-02-11T13:57:09Z</time>
      </trkpt>
      <trkpt lat="43.46058" lon="5.38081">
        <ele>197</ele>
        <time>2020-02-11T13:57:21Z</time>
      </trkpt>
      <trkpt lat="43.4605" lon="5.38089">
        <ele>198</ele>
        <time>2020-02-11T13:57:34Z</time>
      </trkpt>
      <trkpt lat="43.46044" lon="5.38099">
        <ele>199</ele>
        <time>2020-02-11T13:57:46Z</time>
      </trkpt>
      <trkpt lat="43.46038" lon="5.38109">
        <ele>200</ele>
        <time>2020-02-11T13:57:57Z</time>
      </trkpt>
      <trkpt lat="43.46031" lon="5.38119">
        <ele>201</ele>
        <time>2020-02-11T13:58:08Z</time>
      </trkpt>
      <trkpt lat="43.46025" lon="5.38129">
        <ele>202</ele>
        <time>2020-02-11T13:58:18Z</time>
      </trkpt>
      <trkpt lat="43.46019" lon="5.38137">
        <ele>203</ele>
        <time>2020-02-11T13:58:29Z</time>
      </trkpt>
      <trkpt lat="43.46012" lon="5.38147">
        <ele>202</ele>
        <time>2020-02-11T13:58:40Z</time>
      </trkpt>
      <trkpt lat="43.46006" lon="5.38158">
        <ele>204</ele>
        <time>2020-02-11T13:58:50Z</time>
      </trkpt>
      <trkpt lat="43.46001" lon="5.38168">
        <ele>205</ele>
        <time>2020-02-11T13:59:00Z</time>
      </trkpt>
      <trkpt lat="43.45996" lon="5.38178">
        <ele>205</ele>
        <time>2020-02-11T13:59:11Z</time>
      </trkpt>
      <trkpt lat="43.45988" lon="5.38186">
        <ele>204</ele>
        <time>2020-02-11T13:59:22Z</time>
      </trkpt>
      <trkpt lat="43.45982" lon="5.38195">
        <ele>203</ele>
        <time>2020-02-11T13:59:32Z</time>
      </trkpt>
      <trkpt lat="43.45975" lon="5.38205">
        <ele>204</ele>
        <time>2020-02-11T13:59:43Z</time>
      </trkpt>
      <trkpt lat="43.45969" lon="5.38215">
        <ele>205</ele>
        <time>2020-02-11T13:59:52Z</time>
      </trkpt>
      <trkpt lat="43.45963" lon="5.38224">
        <ele>206</ele>
        <time>2020-02-11T14:00:01Z</time>
      </trkpt>
      <trkpt lat="43.45956" lon="5.38234">
        <ele>206</ele>
        <time>2020-02-11T14:00:10Z</time>
      </trkpt>
      <trkpt lat="43.45949" lon="5.38242">
        <ele>206</ele>
        <time>2020-02-11T14:00:18Z</time>
      </trkpt>
      <trkpt lat="43.45943" lon="5.38253">
        <ele>208</ele>
        <time>2020-02-11T14:00:28Z</time>
      </trkpt>
      <trkpt lat="43.45936" lon="5.38262">
        <ele>207</ele>
        <time>2020-02-11T14:00:38Z</time>
      </trkpt>
      <trkpt lat="43.4593" lon="5.38271">
        <ele>208</ele>
        <time>2020-02-11T14:00:48Z</time>
      </trkpt>
      <trkpt lat="43.45923" lon="5.38281">
        <ele>207</ele>
        <time>2020-02-11T14:00:59Z</time>
      </trkpt>
      <trkpt lat="43.45918" lon="5.38291">
        <ele>207</ele>
        <time>2020-02-11T14:01:08Z</time>
      </trkpt>
      <trkpt lat="43.45913" lon="5.38303">
        <ele>208</ele>
        <time>2020-02-11T14:01:17Z</time>
      </trkpt>
      <trkpt lat="43.45907" lon="5.38313">
        <ele>209</ele>
        <time>2020-02-11T14:01:26Z</time>
      </trkpt>
      <trkpt lat="43.45903" lon="5.38324">
        <ele>210</ele>
        <time>2020-02-11T14:01:35Z</time>
      </trkpt>
      <trkpt lat="43.45898" lon="5.38336">
        <ele>212</ele>
        <time>2020-02-11T14:01:46Z</time>
      </trkpt>
      <trkpt lat="43.45895" lon="5.38348">
        <ele>209</ele>
        <time>2020-02-11T14:01:59Z</time>
      </trkpt>
      <trkpt lat="43.4589" lon="5.3836">
        <ele>208</ele>
        <time>2020-02-11T14:02:10Z</time>
      </trkpt>
      <trkpt lat="43.45886" lon="5.38371">
        <ele>208</ele>
        <time>2020-02-11T14:02:20Z</time>
      </trkpt>
      <trkpt lat="43.45881" lon="5.38383">
        <ele>209</ele>
        <time>2020-02-11T14:02:31Z</time>
      </trkpt>
      <trkpt lat="43.45881" lon="5.38396">
        <ele>208</ele>
        <time>2020-02-11T14:02:44Z</time>
      </trkpt>
      <trkpt lat="43.45885" lon="5.38407">
        <ele>208</ele>
        <time>2020-02-11T14:02:55Z</time>
      </trkpt>
      <trkpt lat="43.45892" lon="5.38418">
        <ele>207</ele>
        <time>2020-02-11T14:03:10Z</time>
      </trkpt>
      <trkpt lat="43.459" lon="5.38422">
        <ele>208</ele>
        <time>2020-02-11T14:03:22Z</time>
      </trkpt>
      <trkpt lat="43.4591" lon="5.38425">
        <ele>208</ele>
        <time>2020-02-11T14:03:35Z</time>
      </trkpt>
      <trkpt lat="43.45917" lon="5.38433">
        <ele>209</ele>
        <time>2020-02-11T14:03:48Z</time>
      </trkpt>
      <trkpt lat="43.45923" lon="5.38443">
        <ele>210</ele>
        <time>2020-02-11T14:04:50Z</time>
      </trkpt>
      <trkpt lat="43.45927" lon="5.38455">
        <ele>211</ele>
        <time>2020-02-11T14:05:02Z</time>
      </trkpt>
      <trkpt lat="43.45933" lon="5.38465">
        <ele>210</ele>
        <time>2020-02-11T14:05:13Z</time>
      </trkpt>
      <trkpt lat="43.45939" lon="5.38475">
        <ele>208</ele>
        <time>2020-02-11T14:05:29Z</time>
      </trkpt>
      <trkpt lat="43.45946" lon="5.38483">
        <ele>207</ele>
        <time>2020-02-11T14:05:43Z</time>
      </trkpt>
      <trkpt lat="43.45955" lon="5.38486">
        <ele>206</ele>
        <time>2020-02-11T14:05:55Z</time>
      </trkpt>
      <trkpt lat="43.45964" lon="5.38486">
        <ele>205</ele>
        <time>2020-02-11T14:06:07Z</time>
      </trkpt>
      <trkpt lat="43.45974" lon="5.38487">
        <ele>206</ele>
        <time>2020-02-11T14:06:18Z</time>
      </trkpt>
      <trkpt lat="43.45984" lon="5.38487">
        <ele>206</ele>
        <time>2020-02-11T14:06:28Z</time>
      </trkpt>
      <trkpt lat="43.45993" lon="5.38489">
        <ele>206</ele>
        <time>2020-02-11T14:06:41Z</time>
      </trkpt>
      <trkpt lat="43.46003" lon="5.38487">
        <ele>204</ele>
        <time>2020-02-11T14:06:52Z</time>
      </trkpt>
      <trkpt lat="43.46012" lon="5.3849">
        <ele>203</ele>
        <time>2020-02-11T14:07:04Z</time>
      </trkpt>
      <trkpt lat="43.46021" lon="5.38493">
        <ele>203</ele>
        <time>2020-02-11T14:07:20Z</time>
      </trkpt>
      <trkpt lat="43.4603" lon="5.38496">
        <ele>200</ele>
        <time>2020-02-11T14:07:32Z</time>
      </trkpt>
      <trkpt lat="43.46039" lon="5.38499">
        <ele>200</ele>
        <time>2020-02-11T14:07:43Z</time>
      </trkpt>
      <trkpt lat="43.46047" lon="5.38505">
        <ele>199</ele>
        <time>2020-02-11T14:07:53Z</time>
      </trkpt>
      <trkpt lat="43.46058" lon="5.38508">
        <ele>198</ele>
        <time>2020-02-11T14:08:06Z</time>
      </trkpt>
      <trkpt lat="43.46067" lon="5.38511">
        <ele>196</ele>
        <time>2020-02-11T14:08:20Z</time>
      </trkpt>
      <trkpt lat="43.46076" lon="5.38515">
        <ele>197</ele>
        <time>2020-02-11T14:08:30Z</time>
      </trkpt>
      <trkpt lat="43.46086" lon="5.38519">
        <ele>196</ele>
        <time>2020-02-11T14:08:41Z</time>
      </trkpt>
      <trkpt lat="43.46095" lon="5.38525">
        <ele>194</ele>
        <time>2020-02-11T14:08:54Z</time>
      </trkpt>
      <trkpt lat="43.46104" lon="5.38527">
        <ele>194</ele>
        <time>2020-02-11T14:09:03Z</time>
      </trkpt>
      <trkpt lat="43.46114" lon="5.38528">
        <ele>195</ele>
        <time>2020-02-11T14:09:12Z</time>
      </trkpt>
      <trkpt lat="43.46123" lon="5.3853">
        <ele>195</ele>
        <time>2020-02-11T14:09:19Z</time>
      </trkpt>
      <trkpt lat="43.46133" lon="5.38533">
        <ele>194</ele>
        <time>2020-02-11T14:09:29Z</time>
      </trkpt>
      <trkpt lat="43.46144" lon="5.38535">
        <ele>191</ele>
        <time>2020-02-11T14:09:42Z</time>
      </trkpt>
      <trkpt lat="43.46153" lon="5.38539">
        <ele>190</ele>
        <time>2020-02-11T14:09:51Z</time>
      </trkpt>
      <trkpt lat="43.46162" lon="5.38542">
        <ele>190</ele>
        <time>2020-02-11T14:10:00Z</time>
      </trkpt>
      <trkpt lat="43.46171" lon="5.38546">
        <ele>190</ele>
        <time>2020-02-11T14:10:10Z</time>
      </trkpt>
      <trkpt lat="43.46181" lon="5.3855">
        <ele>191</ele>
        <time>2020-02-11T14:10:19Z</time>
      </trkpt>
      <trkpt lat="43.4619" lon="5.38552">
        <ele>188</ele>
        <time>2020-02-11T14:10:33Z</time>
      </trkpt>
      <trkpt lat="43.46199" lon="5.38559">
        <ele>187</ele>
        <time>2020-02-11T14:10:43Z</time>
      </trkpt>
      <trkpt lat="43.46211" lon="5.38563">
        <ele>183</ele>
        <time>2020-02-11T14:10:56Z</time>
      </trkpt>
      <trkpt lat="43.4622" lon="5.38564">
        <ele>181</ele>
        <time>2020-02-11T14:11:04Z</time>
      </trkpt>
      <trkpt lat="43.4623" lon="5.38564">
        <ele>181</ele>
        <time>2020-02-11T14:11:13Z</time>
      </trkpt>
      <trkpt lat="43.46239" lon="5.38562">
        <ele>184</ele>
        <time>2020-02-11T14:11:23Z</time>
      </trkpt>
      <trkpt lat="43.46248" lon="5.38564">
        <ele>184</ele>
        <time>2020-02-11T14:11:34Z</time>
      </trkpt>
      <trkpt lat="43.46257" lon="5.38562">
        <ele>183</ele>
        <time>2020-02-11T14:11:44Z</time>
      </trkpt>
      <trkpt lat="43.46267" lon="5.3856">
        <ele>179</ele>
        <time>2020-02-11T14:11:54Z</time>
      </trkpt>
      <trkpt lat="43.46277" lon="5.38556">
        <ele>178</ele>
        <time>2020-02-11T14:12:04Z</time>
      </trkpt>
      <trkpt lat="43.46286" lon="5.38552">
        <ele>179</ele>
        <time>2020-02-11T14:12:17Z</time>
      </trkpt>
      <trkpt lat="43.46295" lon="5.3855">
        <ele>178</ele>
        <time>2020-02-11T14:12:27Z</time>
      </trkpt>
      <trkpt lat="43.46304" lon="5.38546">
        <ele>178</ele>
        <time>2020-02-11T14:12:41Z</time>
      </trkpt>
      <trkpt lat="43.46313" lon="5.38541">
        <ele>177</ele>
        <time>2020-02-11T14:12:51Z</time>
      </trkpt>
      <trkpt lat="43.46322" lon="5.38538">
        <ele>179</ele>
        <time>2020-02-11T14:13:01Z</time>
      </trkpt>
      <trkpt lat="43.46328" lon="5.38528">
        <ele>174</ele>
        <time>2020-02-11T14:13:11Z</time>
      </trkpt>
      <trkpt lat="43.46333" lon="5.38517">
        <ele>172</ele>
        <time>2020-02-11T14:13:20Z</time>
      </trkpt>
      <trkpt lat="43.46337" lon="5.38506">
        <ele>175</ele>
        <time>2020-02-11T14:13:28Z</time>
      </trkpt>
      <trkpt lat="43.46344" lon="5.38496">
        <ele>174</ele>
        <time>2020-02-11T14:13:41Z</time>
      </trkpt>
      <trkpt lat="43.46352" lon="5.3849">
        <ele>172</ele>
        <time>2020-02-11T14:13:50Z</time>
      </trkpt>
      <trkpt lat="43.46359" lon="5.38481">
        <ele>175</ele>
        <time>2020-02-11T14:14:02Z</time>
      </trkpt>
      <trkpt lat="43.46363" lon="5.38468">
        <ele>174</ele>
        <time>2020-02-11T14:14:14Z</time>
      </trkpt>
      <trkpt lat="43.4637" lon="5.3846">
        <ele>172</ele>
        <time>2020-02-11T14:14:25Z</time>
      </trkpt>
      <trkpt lat="43.46379" lon="5.38454">
        <ele>172</ele>
        <time>2020-02-11T14:14:42Z</time>
      </trkpt>
      <trkpt lat="43.46387" lon="5.38446">
        <ele>171</ele>
        <time>2020-02-11T14:14:53Z</time>
      </trkpt>
      <trkpt lat="43.46397" lon="5.38443">
        <ele>172</ele>
        <time>2020-02-11T14:15:04Z</time>
      </trkpt>
      <trkpt lat="43.46406" lon="5.38446">
        <ele>172</ele>
        <time>2020-02-11T14:15:18Z</time>
      </trkpt>
      <trkpt lat="43.46414" lon="5.3844">
        <ele>173</ele>
        <time>2020-02-11T14:15:27Z</time>
      </trkpt>
      <trkpt lat="43.46423" lon="5.38435">
        <ele>172</ele>
        <time>2020-02-11T14:15:37Z</time>
      </trkpt>
      <trkpt lat="43.46432" lon="5.38432">
        <ele>170</ele>
        <time>2020-02-11T14:15:48Z</time>
      </trkpt>
      <trkpt lat="43.46443" lon="5.38428">
        <ele>173</ele>
        <time>2020-02-11T14:16:07Z</time>
      </trkpt>
      <trkpt lat="43.46452" lon="5.38425">
        <ele>172</ele>
        <time>2020-02-11T14:16:18Z</time>
      </trkpt>
      <trkpt lat="43.46461" lon="5.38423">
        <ele>172</ele>
        <time>2020-02-11T14:16:29Z</time>
      </trkpt>
      <trkpt lat="43.46471" lon="5.38422">
        <ele>171</ele>
        <time>2020-02-11T14:16:39Z</time>
      </trkpt>
      <trkpt lat="43.4648" lon="5.38417">
        <ele>171</ele>
        <time>2020-02-11T14:16:49Z</time>
      </trkpt>
      <trkpt lat="43.46489" lon="5.38416">
        <ele>170</ele>
        <time>2020-02-11T14:17:02Z</time>
      </trkpt>
      <trkpt lat="43.46498" lon="5.38419">
        <ele>169</ele>
        <time>2020-02-11T14:17:40Z</time>
      </trkpt>
      <trkpt lat="43.46508" lon="5.38419">
        <ele>167</ele>
        <time>2020-02-11T14:17:53Z</time>
      </trkpt>
      <trkpt lat="43.46517" lon="5.38422">
        <ele>167</ele>
        <time>2020-02-11T14:18:04Z</time>
      </trkpt>
      <trkpt lat="43.46525" lon="5.38428">
        <ele>169</ele>
        <time>2020-02-11T14:18:18Z</time>
      </trkpt>
      <trkpt lat="43.46534" lon="5.38431">
        <ele>173</ele>
        <time>2020-02-11T14:18:48Z</time>
      </trkpt>
      <trkpt lat="43.46543" lon="5.38434">
        <ele>173</ele>
        <time>2020-02-11T14:19:05Z</time>
      </trkpt>
      <trkpt lat="43.46552" lon="5.3843">
        <ele>173</ele>
        <time>2020-02-11T14:19:18Z</time>
      </trkpt>
      <trkpt lat="43.4656" lon="5.38425">
        <ele>172</ele>
        <time>2020-02-11T14:19:29Z</time>
      </trkpt>
      <trkpt lat="43.46569" lon="5.38421">
        <ele>172</ele>
        <time>2020-02-11T14:19:41Z</time>
      </trkpt>
      <trkpt lat="43.46578" lon="5.38416">
        <ele>169</ele>
        <time>2020-02-11T14:19:54Z</time>
      </trkpt>
      <trkpt lat="43.46587" lon="5.38411">
        <ele>166</ele>
        <time>2020-02-11T14:20:07Z</time>
      </trkpt>
      <trkpt lat="43.4659" lon="5.38399">
        <ele>164</ele>
        <time>2020-02-11T14:20:17Z</time>
      </trkpt>
      <trkpt lat="43.46596" lon="5.38409">
        <ele>163</ele>
        <time>2020-02-11T14:20:38Z</time>
      </trkpt>
      <trkpt lat="43.46596" lon="5.38421">
        <ele>163</ele>
        <time>2020-02-11T14:20:47Z</time>
      </trkpt>
      <trkpt lat="43.46596" lon="5.38434">
        <ele>164</ele>
        <time>2020-02-11T14:20:56Z</time>
      </trkpt>
      <trkpt lat="43.46594" lon="5.38447">
        <ele>166</ele>
        <time>2020-02-11T14:21:06Z</time>
      </trkpt>
      <trkpt lat="43.4659" lon="5.3846">
        <ele>165</ele>
        <time>2020-02-11T14:21:16Z</time>
      </trkpt>
      <trkpt lat="43.46585" lon="5.38471">
        <ele>166</ele>
        <time>2020-02-11T14:21:27Z</time>
      </trkpt>
      <trkpt lat="43.46578" lon="5.38479">
        <ele>165</ele>
        <time>2020-02-11T14:21:40Z</time>
      </trkpt>
      <trkpt lat="43.46573" lon="5.38491">
        <ele>162</ele>
        <time>2020-02-11T14:21:55Z</time>
      </trkpt>
      <trkpt lat="43.46572" lon="5.38504">
        <ele>164</ele>
        <time>2020-02-11T14:22:04Z</time>
      </trkpt>
      <trkpt lat="43.46574" lon="5.38516">
        <ele>163</ele>
        <time>2020-02-11T14:22:13Z</time>
      </trkpt>
      <trkpt lat="43.46579" lon="5.38527">
        <ele>164</ele>
        <time>2020-02-11T14:22:36Z</time>
      </trkpt>
      <trkpt lat="43.46587" lon="5.38534">
        <ele>163</ele>
        <time>2020-02-11T14:22:46Z</time>
      </trkpt>
      <trkpt lat="43.46595" lon="5.38541">
        <ele>163</ele>
        <time>2020-02-11T14:22:57Z</time>
      </trkpt>
      <trkpt lat="43.46605" lon="5.38544">
        <ele>162</ele>
        <time>2020-02-11T14:23:07Z</time>
      </trkpt>
      <trkpt lat="43.46615" lon="5.38543">
        <ele>162</ele>
        <time>2020-02-11T14:23:16Z</time>
      </trkpt>
      <trkpt lat="43.46624" lon="5.3854">
        <ele>162</ele>
        <time>2020-02-11T14:23:25Z</time>
      </trkpt>
      <trkpt lat="43.46633" lon="5.38537">
        <ele>161</ele>
        <time>2020-02-11T14:23:35Z</time>
      </trkpt>
      <trkpt lat="43.46643" lon="5.38538">
        <ele>162</ele>
        <time>2020-02-11T14:23:45Z</time>
      </trkpt>
      <trkpt lat="43.46652" lon="5.38542">
        <ele>160</ele>
        <time>2020-02-11T14:23:55Z</time>
      </trkpt>
      <trkpt lat="43.46662" lon="5.38545">
        <ele>160</ele>
        <time>2020-02-11T14:24:05Z</time>
      </trkpt>
      <trkpt lat="43.46671" lon="5.38546">
        <ele>160</ele>
        <time>2020-02-11T14:24:13Z</time>
      </trkpt>
      <trkpt lat="43.46679" lon="5.38552">
        <ele>160</ele>
        <time>2020-02-11T14:24:22Z</time>
      </trkpt>
      <trkpt lat="43.46689" lon="5.38553">
        <ele>161</ele>
        <time>2020-02-11T14:24:31Z</time>
      </trkpt>
      <trkpt lat="43.46697" lon="5.38558">
        <ele>159</ele>
        <time>2020-02-11T14:24:44Z</time>
      </trkpt>
      <trkpt lat="43.46706" lon="5.3856">
        <ele>158</ele>
        <time>2020-02-11T14:24:57Z</time>
      </trkpt>
      <trkpt lat="43.4671" lon="5.38572">
        <ele>158</ele>
        <time>2020-02-11T14:25:05Z</time>
      </trkpt>
      <trkpt lat="43.46709" lon="5.38584">
        <ele>157</ele>
        <time>2020-02-11T14:25:23Z</time>
      </trkpt>
      <trkpt lat="43.46705" lon="5.38597">
        <ele>157</ele>
        <time>2020-02-11T14:25:39Z</time>
      </trkpt>
      <trkpt lat="43.46704" lon="5.38609">
        <ele>158</ele>
        <time>2020-02-11T14:25:50Z</time>
      </trkpt>
      <trkpt lat="43.46699" lon="5.3862">
        <ele>157</ele>
        <time>2020-02-11T14:25:59Z</time>
      </trkpt>
      <trkpt lat="43.46695" lon="5.38632">
        <ele>158</ele>
        <time>2020-02-11T14:26:09Z</time>
      </trkpt>
      <trkpt lat="43.46692" lon="5.38643">
        <ele>158</ele>
        <time>2020-02-11T14:26:19Z</time>
      </trkpt>
      <trkpt lat="43.46693" lon="5.38657">
        <ele>157</ele>
        <time>2020-02-11T14:26:31Z</time>
      </trkpt>
      <trkpt lat="43.46697" lon="5.38668">
        <ele>159</ele>
        <time>2020-02-11T14:26:41Z</time>
      </trkpt>
      <trkpt lat="43.46704" lon="5.38677">
        <ele>159</ele>
        <time>2020-02-11T14:26:51Z</time>
      </trkpt>
      <trkpt lat="43.46709" lon="5.38688">
        <ele>158</ele>
        <time>2020-02-11T14:27:01Z</time>
      </trkpt>
      <trkpt lat="43.46714" lon="5.38699">
        <ele>157</ele>
        <time>2020-02-11T14:27:13Z</time>
      </trkpt>
      <trkpt lat="43.46719" lon="5.3871">
        <ele>156</ele>
        <time>2020-02-11T14:27:23Z</time>
      </trkpt>
      <trkpt lat="43.46723" lon="5.38722">
        <ele>155</ele>
        <time>2020-02-11T14:27:33Z</time>
      </trkpt>
      <trkpt lat="43.46729" lon="5.38734">
        <ele>155</ele>
        <time>2020-02-11T14:27:42Z</time>
      </trkpt>
      <trkpt lat="43.46733" lon="5.38745">
        <ele>157</ele>
        <time>2020-02-11T14:27:50Z</time>
      </trkpt>
      <trkpt lat="43.46738" lon="5.38758">
        <ele>157</ele>
        <time>2020-02-11T14:28:00Z</time>
      </trkpt>
      <trkpt lat="43.46742" lon="5.38769">
        <ele>157</ele>
        <time>2020-02-11T14:28:09Z</time>
      </trkpt>
      <trkpt lat="43.46745" lon="5.38781">
        <ele>157</ele>
        <time>2020-02-11T14:28:19Z</time>
      </trkpt>
      <trkpt lat="43.46751" lon="5.38792">
        <ele>155</ele>
        <time>2020-02-11T14:28:29Z</time>
      </trkpt>
      <trkpt lat="43.46755" lon="5.38803">
        <ele>156</ele>
        <time>2020-02-11T14:28:40Z</time>
      </trkpt>
      <trkpt lat="43.46761" lon="5.38814">
        <ele>157</ele>
        <time>2020-02-11T14:28:50Z</time>
      </trkpt>
      <trkpt lat="43.46766" lon="5.38824">
        <ele>157</ele>
        <time>2020-02-11T14:28:59Z</time>
      </trkpt>
      <trkpt lat="43.46771" lon="5.38835">
        <ele>158</ele>
        <time>2020-02-11T14:29:07Z</time>
      </trkpt>
      <trkpt lat="43.46776" lon="5.38847">
        <ele>159</ele>
        <time>2020-02-11T14:29:16Z</time>
      </trkpt>
      <trkpt lat="43.46781" lon="5.38857">
        <ele>159</ele>
        <time>2020-02-11T14:29:25Z</time>
      </trkpt>
      <trkpt lat="43.46787" lon="5.38868">
        <ele>158</ele>
        <time>2020-02-11T14:29:41Z</time>
      </trkpt>
      <trkpt lat="43.46791" lon="5.38881">
        <ele>156</ele>
        <time>2020-02-11T14:29:50Z</time>
      </trkpt>
      <trkpt lat="43.46796" lon="5.38891">
        <ele>157</ele>
        <time>2020-02-11T14:29:59Z</time>
      </trkpt>
      <trkpt lat="43.468" lon="5.38902">
        <ele>157</ele>
        <time>2020-02-11T14:30:07Z</time>
      </trkpt>
      <trkpt lat="43.46804" lon="5.38914">
        <ele>158</ele>
        <time>2020-02-11T14:30:16Z</time>
      </trkpt>
      <trkpt lat="43.46808" lon="5.38927">
        <ele>157</ele>
        <time>2020-02-11T14:30:26Z</time>
      </trkpt>
      <trkpt lat="43.46813" lon="5.38938">
        <ele>158</ele>
        <time>2020-02-11T14:30:35Z</time>
      </trkpt>
      <trkpt lat="43.46818" lon="5.38949">
        <ele>158</ele>
        <time>2020-02-11T14:30:44Z</time>
      </trkpt>
      <trkpt lat="43.46822" lon="5.3896">
        <ele>158</ele>
        <time>2020-02-11T14:30:53Z</time>
      </trkpt>
      <trkpt lat="43.46828" lon="5.38972">
        <ele>158</ele>
        <time>2020-02-11T14:31:03Z</time>
      </trkpt>
      <trkpt lat="43.46832" lon="5.38983">
        <ele>158</ele>
        <time>2020-02-11T14:31:12Z</time>
      </trkpt>
      <trkpt lat="43.46836" lon="5.38994">
        <ele>159</ele>
        <time>2020-02-11T14:31:22Z</time>
      </trkpt>
      <trkpt lat="43.46841" lon="5.39006">
        <ele>161</ele>
        <time>2020-02-11T14:31:31Z</time>
      </trkpt>
      <trkpt lat="43.46846" lon="5.39017">
        <ele>162</ele>
        <time>2020-02-11T14:31:41Z</time>
      </trkpt>
      <trkpt lat="43.46851" lon="5.39029">
        <ele>161</ele>
        <time>2020-02-11T14:31:51Z</time>
      </trkpt>
      <trkpt lat="43.46854" lon="5.39041">
        <ele>161</ele>
        <time>2020-02-11T14:32:01Z</time>
      </trkpt>
      <trkpt lat="43.46858" lon="5.39053">
        <ele>161</ele>
        <time>2020-02-11T14:32:09Z</time>
      </trkpt>
      <trkpt lat="43.46862" lon="5.39065">
        <ele>161</ele>
        <time>2020-02-11T14:32:18Z</time>
      </trkpt>
      <trkpt lat="43.46866" lon="5.39077">
        <ele>162</ele>
        <time>2020-02-11T14:32:27Z</time>
      </trkpt>
      <trkpt lat="43.4687" lon="5.39088">
        <ele>162</ele>
        <time>2020-02-11T14:32:36Z</time>
      </trkpt>
      <trkpt lat="43.46868" lon="5.391">
        <ele>161</ele>
        <time>2020-02-11T14:32:47Z</time>
      </trkpt>
      <trkpt lat="43.46859" lon="5.39103">
        <ele>159</ele>
        <time>2020-02-11T14:33:04Z</time>
      </trkpt>
      <trkpt lat="43.4685" lon="5.39108">
        <ele>160</ele>
        <time>2020-02-11T14:33:17Z</time>
      </trkpt>
      <trkpt lat="43.46841" lon="5.39114">
        <ele>159</ele>
        <time>2020-02-11T14:33:28Z</time>
      </trkpt>
      <trkpt lat="43.46833" lon="5.3912">
        <ele>159</ele>
        <time>2020-02-11T14:33:40Z</time>
      </trkpt>
      <trkpt lat="43.46825" lon="5.39125">
        <ele>160</ele>
        <time>2020-02-11T14:33:49Z</time>
      </trkpt>
      <trkpt lat="43.46817" lon="5.39131">
        <ele>161</ele>
        <time>2020-02-11T14:34:00Z</time>
      </trkpt>
      <trkpt lat="43.46808" lon="5.39137">
        <ele>160</ele>
        <time>2020-02-11T14:34:11Z</time>
      </trkpt>
      <trkpt lat="43.46799" lon="5.39142">
        <ele>161</ele>
        <time>2020-02-11T14:34:23Z</time>
      </trkpt>
      <trkpt lat="43.46792" lon="5.3915">
        <ele>162</ele>
        <time>2020-02-11T14:34:51Z</time>
      </trkpt>
      <trkpt lat="43.46782" lon="5.39153">
        <ele>162</ele>
        <time>2020-02-11T14:35:01Z</time>
      </trkpt>
      <trkpt lat="43.46774" lon="5.39161">
        <ele>161</ele>
        <time>2020-02-11T14:35:12Z</time>
      </trkpt>
      <trkpt lat="43.46766" lon="5.39165">
        <ele>161</ele>
        <time>2020-02-11T14:35:23Z</time>
      </trkpt>
      <trkpt lat="43.46757" lon="5.3917">
        <ele>162</ele>
        <time>2020-02-11T14:35:32Z</time>
      </trkpt>
      <trkpt lat="43.46749" lon="5.39174">
        <ele>162</ele>
        <time>2020-02-11T14:35:42Z</time>
      </trkpt>
      <trkpt lat="43.4674" lon="5.3918">
        <ele>163</ele>
        <time>2020-02-11T14:35:52Z</time>
      </trkpt>
      <trkpt lat="43.46731" lon="5.39184">
        <ele>163</ele>
        <time>2020-02-11T14:36:02Z</time>
      </trkpt>
      <trkpt lat="43.46722" lon="5.39188">
        <ele>164</ele>
        <time>2020-02-11T14:36:14Z</time>
      </trkpt>
      <trkpt lat="43.46715" lon="5.39195">
        <ele>165</ele>
        <time>2020-02-11T14:36:22Z</time>
      </trkpt>
      <trkpt lat="43.46706" lon="5.39201">
        <ele>165</ele>
        <time>2020-02-11T14:36:33Z</time>
      </trkpt>
      <trkpt lat="43.46698" lon="5.39206">
        <ele>166</ele>
        <time>2020-02-11T14:36:43Z</time>
      </trkpt>
      <trkpt lat="43.46689" lon="5.39208">
        <ele>168</ele>
        <time>2020-02-11T14:36:54Z</time>
      </trkpt>
      <trkpt lat="43.46682" lon="5.39218">
        <ele>167</ele>
        <time>2020-02-11T14:38:24Z</time>
      </trkpt>
      <trkpt lat="43.46675" lon="5.39225">
        <ele>165</ele>
        <time>2020-02-11T14:38:35Z</time>
      </trkpt>
      <trkpt lat="43.46666" lon="5.39229">
        <ele>167</ele>
        <time>2020-02-11T14:38:52Z</time>
      </trkpt>
      <trkpt lat="43.46656" lon="5.39229">
        <ele>168</ele>
        <time>2020-02-11T14:39:08Z</time>
      </trkpt>
      <trkpt lat="43.46647" lon="5.39233">
        <ele>168</ele>
        <time>2020-02-11T14:39:20Z</time>
      </trkpt>
      <trkpt lat="43.46638" lon="5.39237">
        <ele>170</ele>
        <time>2020-02-11T14:39:32Z</time>
      </trkpt>
      <trkpt lat="43.46631" lon="5.39243">
        <ele>170</ele>
        <time>2020-02-11T14:39:44Z</time>
      </trkpt>
      <trkpt lat="43.46624" lon="5.39252">
        <ele>170</ele>
        <time>2020-02-11T14:40:01Z</time>
      </trkpt>
      <trkpt lat="43.46616" lon="5.39262">
        <ele>173</ele>
        <time>2020-02-11T14:42:35Z</time>
      </trkpt>
      <trkpt lat="43.4661" lon="5.39272">
        <ele>173</ele>
        <time>2020-02-11T14:42:52Z</time>
      </trkpt>
      <trkpt lat="43.46602" lon="5.39279">
        <ele>175</ele>
        <time>2020-02-11T14:43:13Z</time>
      </trkpt>
      <trkpt lat="43.46595" lon="5.39287">
        <ele>177</ele>
        <time>2020-02-11T14:43:27Z</time>
      </trkpt>
      <trkpt lat="43.46587" lon="5.39293">
        <ele>183</ele>
        <time>2020-02-11T14:43:47Z</time>
      </trkpt>
      <trkpt lat="43.46577" lon="5.39294">
        <ele>183</ele>
        <time>2020-02-11T14:44:02Z</time>
      </trkpt>
      <trkpt lat="43.46568" lon="5.39298">
        <ele>182</ele>
        <time>2020-02-11T14:46:02Z</time>
      </trkpt>
      <trkpt lat="43.46559" lon="5.39294">
        <ele>183</ele>
        <time>2020-02-11T14:46:23Z</time>
      </trkpt>
      <trkpt lat="43.4655" lon="5.39289">
        <ele>182</ele>
        <time>2020-02-11T14:46:36Z</time>
      </trkpt>
      <trkpt lat="43.46542" lon="5.39284">
        <ele>183</ele>
        <time>2020-02-11T14:46:51Z</time>
      </trkpt>
      <trkpt lat="43.46533" lon="5.3928">
        <ele>184</ele>
        <time>2020-02-11T14:47:03Z</time>
      </trkpt>
      <trkpt lat="43.46524" lon="5.39277">
        <ele>187</ele>
        <time>2020-02-11T14:47:14Z</time>
      </trkpt>
      <trkpt lat="43.46514" lon="5.39275">
        <ele>185</ele>
        <time>2020-02-11T14:47:30Z</time>
      </trkpt>
      <trkpt lat="43.46505" lon="5.39272">
        <ele>185</ele>
        <time>2020-02-11T14:47:42Z</time>
      </trkpt>
      <trkpt lat="43.46495" lon="5.39271">
        <ele>186</ele>
        <time>2020-02-11T14:47:52Z</time>
      </trkpt>
      <trkpt lat="43.46486" lon="5.39269">
        <ele>188</ele>
        <time>2020-02-11T14:48:05Z</time>
      </trkpt>
      <trkpt lat="43.46476" lon="5.39267">
        <ele>190</ele>
        <time>2020-02-11T14:48:20Z</time>
      </trkpt>
      <trkpt lat="43.46468" lon="5.3926">
        <ele>190</ele>
        <time>2020-02-11T14:49:10Z</time>
      </trkpt>
      <trkpt lat="43.46465" lon="5.39249">
        <ele>190</ele>
        <time>2020-02-11T14:49:23Z</time>
      </trkpt>
      <trkpt lat="43.46457" lon="5.39239">
        <ele>188</ele>
        <time>2020-02-11T14:49:34Z</time>
      </trkpt>
      <trkpt lat="43.46448" lon="5.39236">
        <ele>193</ele>
        <time>2020-02-11T14:49:50Z</time>
      </trkpt>
      <trkpt lat="43.4644" lon="5.39242">
        <ele>194</ele>
        <time>2020-02-11T14:50:02Z</time>
      </trkpt>
      <trkpt lat="43.4643" lon="5.39243">
        <ele>197</ele>
        <time>2020-02-11T14:50:13Z</time>
      </trkpt>
      <trkpt lat="43.46422" lon="5.3925">
        <ele>198</ele>
        <time>2020-02-11T14:50:24Z</time>
      </trkpt>
      <trkpt lat="43.46414" lon="5.39256">
        <ele>201</ele>
        <time>2020-02-11T14:50:37Z</time>
      </trkpt>
      <trkpt lat="43.46405" lon="5.39257">
        <ele>200</ele>
        <time>2020-02-11T14:50:50Z</time>
      </trkpt>
      <trkpt lat="43.46394" lon="5.39259">
        <ele>200</ele>
        <time>2020-02-11T14:51:11Z</time>
      </trkpt>
      <trkpt lat="43.46383" lon="5.3926">
        <ele>201</ele>
        <time>2020-02-11T14:51:26Z</time>
      </trkpt>
      <trkpt lat="43.46373" lon="5.39262">
        <ele>202</ele>
        <time>2020-02-11T14:51:43Z</time>
      </trkpt>
      <trkpt lat="43.46364" lon="5.39258">
        <ele>202</ele>
        <time>2020-02-11T14:51:58Z</time>
      </trkpt>
      <trkpt lat="43.46355" lon="5.39251">
        <ele>205</ele>
        <time>2020-02-11T14:52:15Z</time>
      </trkpt>
      <trkpt lat="43.46347" lon="5.39245">
        <ele>207</ele>
        <time>2020-02-11T14:52:30Z</time>
      </trkpt>
      <trkpt lat="43.46336" lon="5.39242">
        <ele>207</ele>
        <time>2020-02-11T14:52:45Z</time>
      </trkpt>
      <trkpt lat="43.46328" lon="5.39245">
        <ele>210</ele>
        <time>2020-02-11T14:56:24Z</time>
      </trkpt>
      <trkpt lat="43.46324" lon="5.39256">
        <ele>211</ele>
        <time>2020-02-11T14:56:36Z</time>
      </trkpt>
      <trkpt lat="43.46321" lon="5.39269">
        <ele>213</ele>
        <time>2020-02-11T14:56:46Z</time>
      </trkpt>
      <trkpt lat="43.46318" lon="5.39281">
        <ele>214</ele>
        <time>2020-02-11T14:56:57Z</time>
      </trkpt>
      <trkpt lat="43.46315" lon="5.39294">
        <ele>215</ele>
        <time>2020-02-11T14:57:06Z</time>
      </trkpt>
      <trkpt lat="43.46314" lon="5.39307">
        <ele>217</ele>
        <time>2020-02-11T14:57:17Z</time>
      </trkpt>
      <trkpt lat="43.46311" lon="5.39319">
        <ele>217</ele>
        <time>2020-02-11T14:57:26Z</time>
      </trkpt>
      <trkpt lat="43.46307" lon="5.39332">
        <ele>218</ele>
        <time>2020-02-11T14:57:38Z</time>
      </trkpt>
      <trkpt lat="43.46302" lon="5.39342">
        <ele>217</ele>
        <time>2020-02-11T14:57:47Z</time>
      </trkpt>
      <trkpt lat="43.46296" lon="5.39352">
        <ele>219</ele>
        <time>2020-02-11T14:57:58Z</time>
      </trkpt>
      <trkpt lat="43.46289" lon="5.39361">
        <ele>218</ele>
        <time>2020-02-11T14:58:09Z</time>
      </trkpt>
      <trkpt lat="43.46284" lon="5.39372">
        <ele>219</ele>
        <time>2020-02-11T14:58:18Z</time>
      </trkpt>
      <trkpt lat="43.46279" lon="5.39383">
        <ele>222</ele>
        <time>2020-02-11T14:58:30Z</time>
      </trkpt>
      <trkpt lat="43.46271" lon="5.39391">
        <ele>220</ele>
        <time>2020-02-11T14:58:40Z</time>
      </trkpt>
      <trkpt lat="43.46264" lon="5.394">
        <ele>219</ele>
        <time>2020-02-11T14:58:50Z</time>
      </trkpt>
      <trkpt lat="43.46257" lon="5.39409">
        <ele>218</ele>
        <time>2020-02-11T14:59:02Z</time>
      </trkpt>
      <trkpt lat="43.46251" lon="5.3942">
        <ele>219</ele>
        <time>2020-02-11T14:59:11Z</time>
      </trkpt>
      <trkpt lat="43.46247" lon="5.39431">
        <ele>218</ele>
        <time>2020-02-11T14:59:19Z</time>
      </trkpt>
      <trkpt lat="43.46242" lon="5.39443">
        <ele>216</ele>
        <time>2020-02-11T14:59:28Z</time>
      </trkpt>
      <trkpt lat="43.46237" lon="5.39453">
        <ele>213</ele>
        <time>2020-02-11T14:59:39Z</time>
      </trkpt>
      <trkpt lat="43.46233" lon="5.3947">
        <ele>213</ele>
        <time>2020-02-11T14:59:52Z</time>
      </trkpt>
      <trkpt lat="43.46228" lon="5.39481">
        <ele>217</ele>
        <time>2020-02-11T15:00:04Z</time>
      </trkpt>
      <trkpt lat="43.46222" lon="5.39491">
        <ele>217</ele>
        <time>2020-02-11T15:00:14Z</time>
      </trkpt>
      <trkpt lat="43.46217" lon="5.39502">
        <ele>217</ele>
        <time>2020-02-11T15:00:25Z</time>
      </trkpt>
      <trkpt lat="43.46212" lon="5.39514">
        <ele>217</ele>
        <time>2020-02-11T15:00:48Z</time>
      </trkpt>
      <trkpt lat="43.46208" lon="5.39525">
        <ele>214</ele>
        <time>2020-02-11T15:03:04Z</time>
      </trkpt>
      <trkpt lat="43.46205" lon="5.39539">
        <ele>212</ele>
        <time>2020-02-11T15:03:14Z</time>
      </trkpt>
      <trkpt lat="43.46201" lon="5.3955">
        <ele>210</ele>
        <time>2020-02-11T15:03:23Z</time>
      </trkpt>
      <trkpt lat="43.46195" lon="5.3956">
        <ele>210</ele>
        <time>2020-02-11T15:03:43Z</time>
      </trkpt>
      <trkpt lat="43.46188" lon="5.3957">
        <ele>206</ele>
        <time>2020-02-11T15:03:55Z</time>
      </trkpt>
      <trkpt lat="43.46182" lon="5.39579">
        <ele>205</ele>
        <time>2020-02-11T15:04:03Z</time>
      </trkpt>
      <trkpt lat="43.46177" lon="5.3959">
        <ele>206</ele>
        <time>2020-02-11T15:04:12Z</time>
      </trkpt>
      <trkpt lat="43.46173" lon="5.39601">
        <ele>206</ele>
        <time>2020-02-11T15:04:21Z</time>
      </trkpt>
      <trkpt lat="43.46168" lon="5.39612">
        <ele>205</ele>
        <time>2020-02-11T15:04:31Z</time>
      </trkpt>
      <trkpt lat="43.46162" lon="5.39622">
        <ele>202</ele>
        <time>2020-02-11T15:04:40Z</time>
      </trkpt>
      <trkpt lat="43.46157" lon="5.39633">
        <ele>201</ele>
        <time>2020-02-11T15:04:51Z</time>
      </trkpt>
      <trkpt lat="43.4615" lon="5.39642">
        <ele>201</ele>
        <time>2020-02-11T15:05:00Z</time>
      </trkpt>
      <trkpt lat="43.46142" lon="5.39651">
        <ele>199</ele>
        <time>2020-02-11T15:05:12Z</time>
      </trkpt>
      <trkpt lat="43.46135" lon="5.39659">
        <ele>199</ele>
        <time>2020-02-11T15:05:23Z</time>
      </trkpt>
      <trkpt lat="43.46128" lon="5.39667">
        <ele>197</ele>
        <time>2020-02-11T15:05:34Z</time>
      </trkpt>
      <trkpt lat="43.46121" lon="5.39675">
        <ele>197</ele>
        <time>2020-02-11T15:05:44Z</time>
      </trkpt>
      <trkpt lat="43.46114" lon="5.39684">
        <ele>197</ele>
        <time>2020-02-11T15:05:54Z</time>
      </trkpt>
      <trkpt lat="43.46108" lon="5.39692">
        <ele>195</ele>
        <time>2020-02-11T15:06:03Z</time>
      </trkpt>
      <trkpt lat="43.46101" lon="5.39702">
        <ele>193</ele>
        <time>2020-02-11T15:06:13Z</time>
      </trkpt>
      <trkpt lat="43.46094" lon="5.39711">
        <ele>193</ele>
        <time>2020-02-11T15:06:22Z</time>
      </trkpt>
      <trkpt lat="43.46088" lon="5.3972">
        <ele>193</ele>
        <time>2020-02-11T15:06:34Z</time>
      </trkpt>
      <trkpt lat="43.46081" lon="5.39729">
        <ele>193</ele>
        <time>2020-02-11T15:06:45Z</time>
      </trkpt>
      <trkpt lat="43.46075" lon="5.39739">
        <ele>193</ele>
        <time>2020-02-11T15:06:58Z</time>
      </trkpt>
      <trkpt lat="43.46068" lon="5.39748">
        <ele>192</ele>
        <time>2020-02-11T15:07:08Z</time>
      </trkpt>
      <trkpt lat="43.46061" lon="5.39757">
        <ele>191</ele>
        <time>2020-02-11T15:07:17Z</time>
      </trkpt>
      <trkpt lat="43.46054" lon="5.39766">
        <ele>191</ele>
        <time>2020-02-11T15:07:28Z</time>
      </trkpt>
      <trkpt lat="43.46049" lon="5.39777">
        <ele>189</ele>
        <time>2020-02-11T15:07:39Z</time>
      </trkpt>
      <trkpt lat="43.46041" lon="5.39785">
        <ele>184</ele>
        <time>2020-02-11T15:07:52Z</time>
      </trkpt>
      <trkpt lat="43.46035" lon="5.39795">
        <ele>183</ele>
        <time>2020-02-11T15:08:00Z</time>
      </trkpt>
      <trkpt lat="43.46029" lon="5.39806">
        <ele>185</ele>
        <time>2020-02-11T15:08:11Z</time>
      </trkpt>
      <trkpt lat="43.46022" lon="5.39814">
        <ele>182</ele>
        <time>2020-02-11T15:08:23Z</time>
      </trkpt>
      <trkpt lat="43.46015" lon="5.39822">
        <ele>180</ele>
        <time>2020-02-11T15:08:35Z</time>
      </trkpt>
      <trkpt lat="43.46008" lon="5.39832">
        <ele>178</ele>
        <time>2020-02-11T15:08:47Z</time>
      </trkpt>
      <trkpt lat="43.46001" lon="5.39842">
        <ele>179</ele>
        <time>2020-02-11T15:08:59Z</time>
      </trkpt>
      <trkpt lat="43.45994" lon="5.39851">
        <ele>180</ele>
        <time>2020-02-11T15:09:08Z</time>
      </trkpt>
      <trkpt lat="43.45985" lon="5.39858">
        <ele>183</ele>
        <time>2020-02-11T15:09:21Z</time>
      </trkpt>
      <trkpt lat="43.45978" lon="5.39866">
        <ele>182</ele>
        <time>2020-02-11T15:09:32Z</time>
      </trkpt>
      <trkpt lat="43.45971" lon="5.39874">
        <ele>180</ele>
        <time>2020-02-11T15:09:43Z</time>
      </trkpt>
      <trkpt lat="43.45963" lon="5.39882">
        <ele>179</ele>
        <time>2020-02-11T15:09:54Z</time>
      </trkpt>
      <trkpt lat="43.45956" lon="5.39889">
        <ele>179</ele>
        <time>2020-02-11T15:10:06Z</time>
      </trkpt>
    </trkseg>
  </trk>
</gpx>